LOC: 28.06.2016 21:34:23
UTC: 28.06.2016 18:34:23
ilmateenistus.ee keskkonnaagentuur.ee
EETN Tallinn
FTEO31 EETN 281700
TAF EETN 281700Z 2818/2918 24005KT CAVOK PROB40 TEMPO 2900/2904 2000
    BR MIFG BECMG 2909/2911 32010KT TEMPO 2911/2917 SCT025CB SCT030
    PROB30 TEMPO 2912/2917 3000 TSRA=

METAR EETN 281820Z 26006KT CAVOK 19/13 Q1013 NOSIG=
Tallinn
EEKA Kärdla
METAR EEKA 281750Z NIL=
Kärdla
EEKE Kuressaare
FCEO32 EETN 281400 AAA
TAF AMD EEKE 281800Z 2815/2821 CNL=

METAR EEKE 281750Z AUTO 24005KT 200V280 9999NDV NSC 19/14 Q1014=
Kuressaare
EEPU Pärnu
METAR EEPU 281750Z NIL=
Pärnu
EETU Tartu
METAR EETU 281820Z AUTO VRB04KT 9999 SCT051/// BKN190/// 19/14 Q1013=
Tartu

News

Duty Forecaster: 666 0932 aviamet@envir.ee